createdAt,value
2023-03-02T00:00:14.805Z,15.13
2023-03-02T00:03:20.273Z,14.60
2023-03-02T00:06:22.839Z,17.02
2023-03-02T00:09:25.688Z,15.43
2023-03-02T00:12:30.597Z,16.77
2023-03-02T00:15:33.128Z,14.80
2023-03-02T00:18:36.076Z,16.58
2023-03-02T00:21:38.607Z,15.55
2023-03-02T00:24:41.172Z,15.93
2023-03-02T00:27:44.500Z,16.63
2023-03-02T00:30:47.924Z,16.48
2023-03-02T00:33:54.343Z,16.02
2023-03-02T00:36:56.844Z,15.53
2023-03-02T00:39:59.311Z,16.05
2023-03-02T00:43:02.069Z,16.52
2023-03-02T00:46:12.853Z,15.27
2023-03-02T00:49:15.511Z,15.27
2023-03-02T00:52:18.258Z,16.20
2023-03-02T00:55:20.996Z,15.80
2023-03-02T00:58:26.472Z,16.00
2023-03-02T01:01:29.890Z,15.77
2023-03-02T01:04:41.424Z,15.25
2023-03-02T01:07:43.926Z,15.67
2023-03-02T01:10:47.194Z,14.90
2023-03-02T01:13:50.482Z,18.80
2023-03-02T01:16:53.011Z,20.30
2023-03-02T01:19:56.461Z,20.42
2023-03-02T01:22:59.578Z,20.45
2023-03-02T01:26:02.313Z,19.02
2023-03-02T01:29:04.972Z,20.30
2023-03-02T01:32:08.889Z,18.30
2023-03-02T01:35:11.843Z,17.77
2023-03-02T01:38:14.607Z,17.25
2023-03-02T01:41:17.883Z,17.55
2023-03-02T01:44:35.875Z,17.05
2023-03-02T01:47:39.921Z,17.60
2023-03-02T01:50:50.144Z,18.10
2023-03-02T01:53:58.378Z,18.10
2023-03-02T01:57:03.272Z,19.25
2023-03-02T02:00:08.885Z,18.73
2023-03-02T02:03:20.971Z,18.08
2023-03-02T02:06:37.130Z,16.35
2023-03-02T02:09:51.453Z,14.32
2023-03-02T02:12:54.125Z,10.57
2023-03-02T02:15:56.696Z,10.95
2023-03-02T02:19:01.083Z,10.38
2023-03-02T02:22:04.526Z,10.70
2023-03-02T02:25:21.105Z,11.85
2023-03-02T02:28:32.001Z,11.90
2023-03-02T02:32:07.052Z,10.32
2023-03-02T02:35:19.860Z,10.40
2023-03-02T02:38:24.605Z,11.40
2023-03-02T02:41:31.675Z,10.00
2023-03-02T02:44:35.048Z,10.98
2023-03-02T02:47:38.133Z,9.73
2023-03-02T02:50:43.191Z,10.30
2023-03-02T02:53:58.645Z,11.05
2023-03-02T02:57:05.069Z,11.60
2023-03-02T03:00:18.128Z,9.05
2023-03-02T03:03:34.301Z,10.52
2023-03-02T03:06:50.763Z,9.02
2023-03-02T03:10:01.307Z,9.60
2023-03-02T03:13:04.237Z,8.77
2023-03-02T03:16:11.380Z,9.48
2023-03-02T03:19:24.189Z,9.80
2023-03-02T03:22:27.637Z,9.90
2023-03-02T03:25:35.026Z,9.48
2023-03-02T03:28:38.034Z,8.32
2023-03-02T03:31:41.488Z,7.53
2023-03-02T03:34:44.436Z,8.30
2023-03-02T03:37:57.138Z,8.32
2023-03-02T03:41:00.738Z,8.85
2023-03-02T03:44:04.712Z,7.95
2023-03-02T03:47:09.753Z,8.25
2023-03-02T03:50:13.098Z,7.95
2023-03-02T03:53:17.152Z,8.93
2023-03-02T03:56:20.286Z,7.90
2023-03-02T03:59:25.060Z,9.75
2023-03-02T04:02:32.006Z,8.18
2023-03-02T04:05:34.831Z,6.80
2023-03-02T04:08:38.540Z,7.55
2023-03-02T04:11:43.783Z,7.72
2023-03-02T04:14:46.385Z,8.55
2023-03-02T04:17:49.229Z,7.72
2023-03-02T04:20:54.958Z,8.43
2023-03-02T04:23:57.622Z,8.95
2023-03-02T04:27:00.192Z,8.30
2023-03-02T04:30:03.522Z,7.35
2023-03-02T04:33:07.237Z,8.55
2023-03-02T04:36:11.104Z,9.50
2023-03-02T04:39:19.263Z,8.80
2023-03-02T04:42:25.276Z,9.00
2023-03-02T04:45:27.779Z,9.77
2023-03-02T04:48:30.711Z,11.90
2023-03-02T04:51:42.067Z,8.05
2023-03-02T04:54:44.577Z,8.25
2023-03-02T04:57:47.162Z,8.70
2023-03-02T05:00:49.955Z,9.32
2023-03-02T05:03:53.518Z,8.50
2023-03-02T05:07:01.683Z,8.98
2023-03-02T05:10:04.971Z,9.40
2023-03-02T05:13:07.747Z,8.85
2023-03-02T05:16:10.334Z,9.77
2023-03-02T05:19:13.421Z,9.60
2023-03-02T05:22:16.040Z,9.23
2023-03-02T05:25:18.723Z,10.38
2023-03-02T05:28:23.316Z,9.32
2023-03-02T05:31:31.802Z,9.40
2023-03-02T05:34:34.483Z,9.63
2023-03-02T05:37:39.839Z,10.93
2023-03-02T05:40:43.430Z,11.50
2023-03-02T05:43:45.905Z,10.55
2023-03-02T05:46:49.692Z,11.77
2023-03-02T05:49:52.503Z,11.85
2023-03-02T05:52:55.075Z,11.75
2023-03-02T05:55:57.644Z,11.90
2023-03-02T05:59:00.195Z,11.32
2023-03-02T06:02:03.307Z,11.30
2023-03-02T06:05:11.462Z,12.20
2023-03-02T06:08:14.005Z,11.05
2023-03-02T06:11:17.159Z,12.40
2023-03-02T06:14:19.753Z,12.45
2023-03-02T06:17:22.234Z,9.85
2023-03-02T06:20:25.463Z,7.35
2023-03-02T06:23:28.251Z,9.60
2023-03-02T06:26:31.457Z,8.02
2023-03-02T06:29:34.182Z,6.95
2023-03-02T06:32:36.974Z,7.07
2023-03-02T06:35:39.679Z,6.72
2023-03-02T06:38:42.529Z,7.78
2023-03-02T06:41:46.682Z,7.55
2023-03-02T06:44:49.786Z,6.90
2023-03-02T06:47:54.109Z,7.30
2023-03-02T06:50:57.442Z,8.13
2023-03-02T06:54:00.284Z,6.50
2023-03-02T06:57:03.089Z,6.07
2023-03-02T07:00:15.503Z,7.68
2023-03-02T07:03:23.109Z,7.05
2023-03-02T07:06:25.732Z,6.68
2023-03-02T07:09:30.867Z,5.50
2023-03-02T07:12:33.625Z,6.00
2023-03-02T07:15:42.453Z,6.70
2023-03-02T07:18:45.270Z,8.05
2023-03-02T07:21:48.933Z,6.25
2023-03-02T07:24:51.464Z,7.30
2023-03-02T07:27:53.948Z,7.20
2023-03-02T07:30:56.681Z,6.80
2023-03-02T07:33:59.204Z,6.95
2023-03-02T07:37:34.977Z,6.57
2023-03-02T07:41:33.102Z,6.67
2023-03-02T07:44:36.079Z,6.45
2023-03-02T07:47:38.679Z,5.82
2023-03-02T07:50:41.307Z,6.22
2023-03-02T07:53:43.870Z,7.07
2023-03-02T07:56:46.502Z,6.80
2023-03-02T07:59:49.240Z,8.02
2023-03-02T08:02:51.990Z,6.55
2023-03-02T08:05:56.154Z,6.85
2023-03-02T08:09:00.412Z,5.90
2023-03-02T08:12:02.987Z,6.23
2023-03-02T08:15:09.038Z,5.45
2023-03-02T08:18:11.782Z,6.18
2023-03-02T08:21:17.549Z,5.57
2023-03-02T08:24:20.254Z,3.07
2023-03-02T08:27:22.819Z,5.50
2023-03-02T08:30:26.019Z,5.25
2023-03-02T08:33:29.232Z,4.75
2023-03-02T08:36:32.339Z,5.40
2023-03-02T08:39:35.148Z,4.90
2023-03-02T08:42:37.752Z,5.87
2023-03-02T08:45:40.355Z,4.68
2023-03-02T08:48:43.618Z,4.60
2023-03-02T08:51:47.201Z,5.55
2023-03-02T08:54:49.706Z,4.53
2023-03-02T08:57:52.307Z,6.23
2023-03-02T09:00:56.146Z,4.20
2023-03-02T09:04:00.938Z,4.72
2023-03-02T09:07:04.001Z,4.72
2023-03-02T09:10:08.363Z,5.47
2023-03-02T09:13:11.849Z,5.17
2023-03-02T09:16:20.355Z,4.55
2023-03-02T09:19:22.955Z,3.85
2023-03-02T09:22:25.636Z,3.65
2023-03-02T09:25:29.660Z,3.40
2023-03-02T09:28:34.479Z,3.20
2023-03-02T09:31:37.761Z,2.55
2023-03-02T09:34:40.790Z,2.83
2023-03-02T09:37:44.513Z,3.13
2023-03-02T09:41:00.481Z,2.97
2023-03-02T09:44:09.276Z,2.90
2023-03-02T09:47:29.922Z,3.28
2023-03-02T09:50:45.320Z,3.72
2023-03-02T09:54:00.558Z,3.40
2023-03-02T09:57:06.670Z,3.07
2023-03-02T10:01:18.815Z,3.53
2023-03-02T10:04:27.725Z,3.03
2023-03-02T10:07:33.194Z,4.50
2023-03-02T10:10:46.983Z,4.38
2023-03-02T10:14:13.661Z,3.50
2023-03-02T10:17:43.199Z,4.27
2023-03-02T10:20:52.896Z,3.88
2023-03-02T10:24:10.072Z,3.70
2023-03-02T10:27:42.885Z,3.85
2023-03-02T10:30:50.324Z,3.67
2023-03-02T10:33:53.031Z,4.27
2023-03-02T10:36:55.607Z,3.58
2023-03-02T10:39:58.168Z,4.10
2023-03-02T10:43:01.749Z,3.47
2023-03-02T10:46:07.784Z,3.77
2023-03-02T10:49:30.651Z,4.07
2023-03-02T10:52:34.509Z,3.83
2023-03-02T10:55:48.846Z,4.00
2023-03-02T10:58:51.422Z,4.35
2023-03-02T11:02:24.473Z,4.47
2023-03-02T11:05:32.180Z,3.83
2023-03-02T11:08:35.007Z,4.57
2023-03-02T11:11:38.404Z,4.32
2023-03-02T11:14:43.007Z,4.35
2023-03-02T11:17:51.271Z,4.97
2023-03-02T11:21:36.061Z,4.47
2023-03-02T11:24:49.513Z,4.93
2023-03-02T11:28:00.213Z,5.38
2023-03-02T11:31:07.151Z,4.72
2023-03-02T11:34:18.324Z,4.70
2023-03-02T11:37:23.727Z,4.50
2023-03-02T11:40:46.728Z,4.05
2023-03-02T11:44:06.706Z,4.57
2023-03-02T11:47:12.365Z,5.32
2023-03-02T11:50:17.079Z,3.83
2023-03-02T11:53:24.044Z,4.00
2023-03-02T11:56:33.851Z,4.20
2023-03-02T11:59:36.981Z,4.10
2023-03-02T12:02:40.254Z,4.00
2023-03-02T12:06:00.210Z,3.90
2023-03-02T12:09:25.563Z,4.40
2023-03-02T12:12:36.554Z,4.28
2023-03-02T12:15:50.251Z,3.95
2023-03-02T12:18:53.141Z,4.20
2023-03-02T12:22:00.503Z,4.47
2023-03-02T12:25:21.568Z,4.30
2023-03-02T12:28:34.217Z,4.13
2023-03-02T12:31:52.134Z,4.78
2023-03-02T12:34:59.223Z,4.50
2023-03-02T12:38:16.671Z,4.33
2023-03-02T12:41:40.066Z,4.77
2023-03-02T12:44:54.001Z,4.25
2023-03-02T12:48:22.678Z,4.05
2023-03-02T12:51:33.242Z,4.50
2023-03-02T12:54:37.580Z,3.47
2023-03-02T12:57:58.728Z,5.20
2023-03-02T13:01:06.156Z,4.80
2023-03-02T13:04:21.570Z,4.60
2023-03-02T13:07:28.429Z,4.47
2023-03-02T13:10:37.879Z,5.10
2023-03-02T13:13:45.319Z,4.27
2023-03-02T13:17:00.478Z,4.68
2023-03-02T13:20:06.155Z,5.47
2023-03-02T13:23:15.076Z,4.43
2023-03-02T13:26:26.880Z,5.07
2023-03-02T13:29:32.216Z,4.50
2023-03-02T13:32:39.965Z,5.00
2023-03-02T13:35:47.059Z,5.15
2023-03-02T13:38:53.473Z,5.38
2023-03-02T13:42:00.229Z,5.30
2023-03-02T13:45:29.486Z,5.10
2023-03-02T13:48:34.314Z,4.47
2023-03-02T13:51:45.766Z,4.97
2023-03-02T13:54:49.691Z,4.68
2023-03-02T13:57:54.654Z,5.23
2023-03-02T14:00:58.247Z,4.70
2023-03-02T14:04:02.000Z,4.70
2023-03-02T14:07:06.201Z,5.07
2023-03-02T14:10:12.402Z,4.35
2023-03-02T14:13:22.710Z,4.50
2023-03-02T14:16:28.002Z,5.20
2023-03-02T14:19:38.019Z,4.28
2023-03-02T14:22:42.173Z,4.20
2023-03-02T14:25:45.280Z,4.47
2023-03-02T14:28:53.650Z,3.80
2023-03-02T14:32:04.674Z,4.67
2023-03-02T14:35:12.049Z,5.32
2023-03-02T14:38:15.062Z,4.10
2023-03-02T14:41:23.232Z,4.47
2023-03-02T14:44:26.126Z,4.22
2023-03-02T14:47:28.585Z,3.80
2023-03-02T14:50:38.648Z,4.30
2023-03-02T14:53:42.260Z,4.70
2023-03-02T14:56:45.199Z,4.47
2023-03-02T14:59:49.159Z,4.10
2023-03-02T15:02:52.835Z,5.90
2023-03-02T15:06:01.311Z,4.70
2023-03-02T15:09:05.066Z,4.20
2023-03-02T15:12:08.084Z,3.95
2023-03-02T15:15:12.286Z,4.07
2023-03-02T15:18:19.908Z,3.57
2023-03-02T15:21:25.416Z,3.78
2023-03-02T15:24:28.123Z,3.92
2023-03-02T15:27:31.217Z,4.13
2023-03-02T15:30:37.556Z,3.83
2023-03-02T15:33:40.647Z,6.43
2023-03-02T15:36:43.198Z,5.15
2023-03-02T15:39:45.813Z,4.95
2023-03-02T15:42:49.102Z,4.57
2023-03-02T15:45:51.618Z,4.13
2023-03-02T15:48:54.523Z,3.80
2023-03-02T15:51:58.488Z,4.80
2023-03-02T15:55:00.965Z,4.13
2023-03-02T15:58:08.241Z,3.72
2023-03-02T16:01:12.409Z,4.20
2023-03-02T16:04:15.569Z,4.40
2023-03-02T16:07:18.152Z,4.47
2023-03-02T16:10:21.283Z,6.45
2023-03-02T16:13:25.371Z,6.22
2023-03-02T16:16:27.993Z,4.77
2023-03-02T16:19:30.594Z,4.70
2023-03-02T16:22:33.507Z,4.70
2023-03-02T16:25:39.828Z,4.03
2023-03-02T16:28:42.884Z,5.90
2023-03-02T16:31:47.107Z,5.53
2023-03-02T16:34:49.671Z,5.90
2023-03-02T16:37:53.110Z,6.38
2023-03-02T16:40:57.228Z,7.13
2023-03-02T16:44:01.000Z,14.52
2023-03-02T16:47:04.281Z,31.53
2023-03-02T16:50:07.803Z,25.03
2023-03-02T16:53:13.589Z,23.15
2023-03-02T16:56:16.726Z,10.60
2023-03-02T16:59:19.476Z,7.47
2023-03-02T17:02:22.012Z,7.87
2023-03-02T17:05:24.730Z,11.93
2023-03-02T17:08:28.262Z,12.43
2023-03-02T17:11:31.908Z,12.98
2023-03-02T17:14:34.547Z,16.23
2023-03-02T17:17:38.396Z,17.73
2023-03-02T17:20:43.618Z,23.07
2023-03-02T17:23:48.229Z,21.30
2023-03-02T17:26:50.724Z,18.65
2023-03-02T17:29:55.030Z,17.50
2023-03-02T17:32:58.058Z,17.60
2023-03-02T17:36:07.474Z,20.57
2023-03-02T17:39:10.471Z,24.20
2023-03-02T17:42:13.229Z,27.25
2023-03-02T17:45:23.280Z,39.63
2023-03-02T17:48:26.707Z,46.10
2023-03-02T17:51:29.677Z,45.33
2023-03-02T17:54:32.840Z,37.70
2023-03-02T17:57:36.823Z,35.28
2023-03-02T18:00:41.189Z,29.10
2023-03-02T18:03:45.233Z,24.77
2023-03-02T18:06:48.542Z,23.23
2023-03-02T18:09:51.501Z,22.45
2023-03-02T18:12:54.916Z,23.02
2023-03-02T18:15:57.470Z,23.10
2023-03-02T18:19:02.013Z,24.57
2023-03-02T18:22:05.028Z,26.50
2023-03-02T18:25:08.267Z,22.77
2023-03-02T18:28:10.917Z,19.13
2023-03-02T18:31:15.675Z,16.88
2023-03-02T18:34:19.881Z,17.33
2023-03-02T18:37:22.911Z,17.27
2023-03-02T18:40:27.833Z,19.45
2023-03-02T18:43:34.855Z,18.73
2023-03-02T18:46:38.426Z,19.88
2023-03-02T18:49:42.761Z,20.37
2023-03-02T18:52:45.718Z,21.40
2023-03-02T18:55:48.866Z,22.63
2023-03-02T18:58:52.940Z,25.38
2023-03-02T19:01:56.118Z,26.70
2023-03-02T19:04:59.728Z,25.37
2023-03-02T19:08:03.814Z,26.70
2023-03-02T19:11:06.680Z,26.33
2023-03-02T19:14:09.577Z,27.65
2023-03-02T19:17:12.727Z,24.17
2023-03-02T19:20:18.231Z,25.03
2023-03-02T19:23:21.535Z,26.10
2023-03-02T19:26:24.424Z,27.25
2023-03-02T19:29:28.758Z,25.98
2023-03-02T19:32:31.893Z,26.73
2023-03-02T19:35:35.463Z,27.67
2023-03-02T19:38:41.538Z,28.63
2023-03-02T19:41:44.460Z,27.77
2023-03-02T19:44:47.252Z,26.17
2023-03-02T19:47:50.040Z,26.30
2023-03-02T19:50:54.301Z,28.07
2023-03-02T19:53:57.959Z,28.20
2023-03-02T19:57:03.195Z,29.17
2023-03-02T20:00:09.336Z,34.00
2023-03-02T20:03:15.424Z,34.70
2023-03-02T20:06:20.726Z,36.27
2023-03-02T20:09:24.301Z,37.77
2023-03-02T20:12:27.053Z,39.35
2023-03-02T20:15:32.133Z,39.13
2023-03-02T20:18:35.609Z,40.15
2023-03-02T20:21:38.658Z,38.27
2023-03-02T20:24:42.611Z,37.60
2023-03-02T20:27:45.280Z,39.22
2023-03-02T20:30:56.386Z,42.78
2023-03-02T20:33:59.303Z,40.65
2023-03-02T20:37:03.282Z,44.00
2023-03-02T20:40:08.248Z,39.00
2023-03-02T20:43:13.175Z,41.08
2023-03-02T20:46:27.223Z,43.50
2023-03-02T20:49:31.225Z,39.88
2023-03-02T20:52:34.045Z,36.23
2023-03-02T20:55:36.895Z,33.50
2023-03-02T20:58:43.405Z,35.97
2023-03-02T21:01:46.258Z,32.40
2023-03-02T21:04:49.630Z,31.77
2023-03-02T21:07:53.911Z,28.30
2023-03-02T21:10:57.055Z,29.90
2023-03-02T21:14:02.168Z,29.58
2023-03-02T21:17:05.400Z,29.05
2023-03-02T21:20:09.320Z,28.15
2023-03-02T21:23:13.210Z,30.53
2023-03-02T21:26:16.243Z,28.87
2023-03-02T21:29:22.250Z,28.80
2023-03-02T21:32:24.894Z,29.38
2023-03-02T21:35:27.640Z,27.25
2023-03-02T21:38:30.680Z,28.17
2023-03-02T21:41:37.988Z,25.73
2023-03-02T21:44:44.067Z,24.73
2023-03-02T21:47:47.027Z,26.35
2023-03-02T21:50:49.929Z,25.70
2023-03-02T21:53:55.154Z,27.00
2023-03-02T21:56:57.631Z,25.98
2023-03-02T22:00:00.757Z,25.55
2023-03-02T22:03:03.866Z,24.23
2023-03-02T22:06:06.698Z,26.93
2023-03-02T22:09:11.567Z,27.73
2023-03-02T22:12:15.629Z,26.50
2023-03-02T22:15:21.184Z,24.98
2023-03-02T22:18:25.865Z,24.40
2023-03-02T22:21:37.469Z,24.47
2023-03-02T22:24:42.124Z,24.00
2023-03-02T22:27:46.145Z,24.90
2023-03-02T22:30:50.964Z,23.88
2023-03-02T22:33:53.914Z,25.90
2023-03-02T22:37:10.853Z,24.90
2023-03-02T22:40:30.583Z,25.63
2023-03-02T22:43:35.034Z,24.42
2023-03-02T22:46:37.562Z,26.30
2023-03-02T22:49:40.095Z,24.43
2023-03-02T22:52:44.684Z,24.63
2023-03-02T22:55:47.785Z,26.88
2023-03-02T22:58:51.428Z,25.05
2023-03-02T23:02:00.124Z,26.87
2023-03-02T23:05:18.136Z,26.40
2023-03-02T23:08:31.059Z,26.30
2023-03-02T23:11:40.981Z,25.50
2023-03-02T23:14:53.097Z,23.90
2023-03-02T23:17:57.819Z,24.50
2023-03-02T23:21:00.320Z,24.27
2023-03-02T23:24:03.185Z,24.57
2023-03-02T23:27:05.809Z,25.07
2023-03-02T23:30:09.615Z,26.05
2023-03-02T23:33:12.128Z,27.60
2023-03-02T23:36:15.489Z,27.07
2023-03-02T23:39:18.511Z,25.75
2023-03-02T23:42:21.123Z,26.13
2023-03-02T23:45:23.606Z,24.45
2023-03-02T23:48:26.343Z,26.47
2023-03-02T23:51:28.902Z,26.27
2023-03-02T23:54:31.529Z,26.38
2023-03-02T23:57:34.765Z,24.75
